Time;durP1;ratioP1;P1;durP2;ratioP2;P2;SDS_P1;SDS_P2;PMS_P1;PMS_P2;Temp;Humidity;BMP_temperature;BMP_pressure;BME280_temperature;BME280_humidity;BME280_pressure;Samples;Min_cycle;Max_cycle;Signal;HPM_P1;HPM_P2
2021/07/01 00:00:33;;;;;;;9.63;8.73;;;22.00;65.50;;;;;;5025991;28;20404;-74
2021/07/01 00:02:59;;;;;;;11.25;8.73;;;22.00;65.60;;;;;;5026751;28;20136;-76
2021/07/01 00:05:25;;;;;;;9.65;8.73;;;21.90;65.50;;;;;;5025882;28;20141;-75
2021/07/01 00:07:51;;;;;;;10.48;9.48;;;21.90;65.70;;;;;;5026611;28;20499;-75
2021/07/01 00:10:25;;;;;;;11.10;8.85;;;21.90;65.80;;;;;;5027745;28;20025;-74
2021/07/01 00:12:51;;;;;;;12.48;10.13;;;21.80;65.70;;;;;;5025627;28;20056;-75
2021/07/01 00:15:24;;;;;;;10.00;9.07;;;21.70;65.50;;;;;;5027078;28;20031;-75
2021/07/01 00:17:52;;;;;;;10.35;9.35;;;21.70;65.70;;;;;;5025643;28;20060;-75
2021/07/01 00:20:18;;;;;;;10.50;9.05;;;21.60;65.50;;;;;;5026929;28;20106;-75
2021/07/01 00:22:44;;;;;;;10.52;9.23;;;21.60;65.60;;;;;;5025953;28;20040;-74
2021/07/01 00:25:12;;;;;;;10.80;8.73;;;21.60;65.70;;;;;;5046530;28;20040;-74
2021/07/01 00:27:39;;;;;;;10.38;9.38;;;21.50;65.60;;;;;;5046322;28;20088;-74
2021/07/01 00:30:07;;;;;;;11.43;10.35;;;21.50;65.70;;;;;;5027727;28;20022;-75
2021/07/01 00:32:33;;;;;;;10.40;9.13;;;21.40;65.60;;;;;;5008441;28;20084;-76
2021/07/01 00:34:59;;;;;;;10.75;9.75;;;21.40;65.60;;;;;;5045653;28;20276;-76
2021/07/01 00:37:28;;;;;;;12.60;10.30;;;21.30;65.60;;;;;;5045222;28;20039;-75
2021/07/01 00:39:55;;;;;;;11.00;9.80;;;21.30;65.60;;;;;;5046039;28;20492;-76
2021/07/01 00:42:21;;;;;;;11.18;10.07;;;21.30;65.70;;;;;;5045314;28;20025;-75
2021/07/01 00:44:47;;;;;;;10.82;9.82;;;21.30;65.80;;;;;;5044463;28;20166;-75
2021/07/01 00:47:14;;;;;;;12.07;10.48;;;21.20;65.80;;;;;;5044953;28;20441;-75
2021/07/01 00:49:43;;;;;;;10.18;9.13;;;21.20;65.80;;;;;;5045899;28;20036;-76
2021/07/01 00:52:10;;;;;;;11.20;10.18;;;21.10;65.80;;;;;;5046074;28;20503;-75
2021/07/01 00:54:37;;;;;;;10.50;9.50;;;21.10;65.80;;;;;;5045887;28;20028;-75
2021/07/01 00:57:05;;;;;;;9.98;9.07;;;21.10;65.90;;;;;;5046747;28;20029;-76
2021/07/01 00:59:31;;;;;;;10.13;9.13;;;21.00;65.80;;;;;;5024838;28;20497;-76
2021/07/01 01:01:57;;;;;;;10.05;9.05;;;21.00;65.80;;;;;;5041327;28;20087;-75
2021/07/01 01:04:24;;;;;;;10.45;9.45;;;20.90;65.70;;;;;;5040277;28;20029;-75
2021/07/01 01:06:50;;;;;;;10.50;9.43;;;20.90;65.80;;;;;;5045152;28;20826;-75
2021/07/01 01:09:16;;;;;;;10.38;9.48;;;20.80;65.70;;;;;;5045811;28;20025;-75
2021/07/01 01:11:43;;;;;;;10.52;9.63;;;20.80;65.80;;;;;;5046210;28;20039;-74
2021/07/01 01:14:13;;;;;;;10.63;9.50;;;20.80;65.90;;;;;;5045426;28;20114;-75
2021/07/01 01:16:48;;;;;;;10.57;8.93;;;20.70;65.80;;;;;;5049346;28;20502;-75
2021/07/01 01:19:15;;;;;;;10.52;9.52;;;20.70;65.80;;;;;;5049878;28;20033;-75
2021/07/01 01:21:49;;;;;;;10.00;9.05;;;20.60;65.70;;;;;;5049078;28;20129;-74
2021/07/01 01:24:16;;;;;;;9.70;8.80;;;20.60;65.90;;;;;;5049846;28;20087;-75
2021/07/01 01:26:43;;;;;;;9.95;8.93;;;20.50;65.80;;;;;;5050220;28;20060;-75
2021/07/01 01:29:09;;;;;;;10.98;9.13;;;20.50;65.80;;;;;;5049603;28;20115;-75
2021/07/01 01:31:38;;;;;;;9.63;8.82;;;20.40;65.70;;;;;;5049944;28;20507;-75
2021/07/01 01:34:06;;;;;;;9.80;8.90;;;20.40;65.80;;;;;;5049983;28;20041;-75
2021/07/01 01:36:32;;;;;;;10.48;9.48;;;20.40;65.90;;;;;;5049009;28;20024;-74
2021/07/01 01:38:58;;;;;;;10.13;9.23;;;20.30;65.80;;;;;;5039092;28;20481;-75
2021/07/01 01:41:39;;;;;;;10.77;9.55;;;20.30;65.90;;;;;;5028803;28;20037;-75
2021/07/01 01:44:05;;;;;;;11.05;9.80;;;20.30;66.00;;;;;;5028073;28;20029;-76
2021/07/01 01:46:34;;;;;;;10.10;9.30;;;20.20;65.80;;;;;;5038504;28;20042;-75
2021/07/01 01:49:01;;;;;;;9.82;8.88;;;20.20;65.90;;;;;;5031762;28;20030;-76
2021/07/01 01:51:27;;;;;;;9.77;8.90;;;20.20;65.90;;;;;;5033408;28;20030;-76
2021/07/01 01:53:59;;;;;;;8.57;7.78;;;20.20;66.00;;;;;;5032081;28;20072;-76
2021/07/01 01:56:36;;;;;;;10.40;8.98;;;20.10;65.90;;;;;;5048279;28;20021;-77
2021/07/01 01:59:03;;;;;;;10.73;9.73;;;20.10;65.90;;;;;;5031757;28;20041;-77
2021/07/01 02:01:48;;;;;;;11.25;9.40;;;20.10;66.00;;;;;;5033057;28;20021;-77
2021/07/01 02:04:14;;;;;;;9.52;8.55;;;20.00;65.90;;;;;;5032693;28;20029;-77
2021/07/01 02:06:43;;;;;;;12.38;9.93;;;20.00;65.90;;;;;;5048130;28;20044;-76
2021/07/01 02:09:10;;;;;;;10.82;8.63;;;20.00;66.00;;;;;;5047963;28;20033;-76
2021/07/01 02:11:44;;;;;;;9.60;8.75;;;19.90;65.90;;;;;;5048164;28;20025;-76
2021/07/01 02:14:16;;;;;;;9.73;8.73;;;19.90;66.00;;;;;;5031477;28;20032;-76
2021/07/01 02:17:05;;;;;;;9.38;8.57;;;19.90;66.00;;;;;;5032523;28;20107;-76
2021/07/01 02:19:33;;;;;;;9.68;8.65;;;19.80;65.90;;;;;;5015292;28;20025;-77
2021/07/01 02:22:00;;;;;;;9.13;7.95;;;19.80;66.00;;;;;;5048021;28;20029;-76
2021/07/01 02:24:26;;;;;;;10.02;9.02;;;19.80;66.00;;;;;;5031647;28;20116;-76
2021/07/01 02:26:53;;;;;;;9.13;8.30;;;19.80;66.10;;;;;;5015041;28;20665;-76
2021/07/01 02:29:19;;;;;;;10.23;9.30;;;19.70;66.00;;;;;;5047843;28;20389;-76
2021/07/01 02:31:58;;;;;;;10.18;8.73;;;19.70;66.00;;;;;;5006650;28;1182873;-77
2021/07/01 02:34:25;;;;;;;9.82;8.93;;;19.70;66.10;;;;;;5032607;28;20025;-76
2021/07/01 02:37:26;;;;;;;8.63;7.88;;;19.60;66.00;;;;;;4971701;28;20505;-76
2021/07/01 02:40:06;;;;;;;9.40;8.57;;;19.60;66.00;;;;;;5025717;28;20029;-77
2021/07/01 02:42:47;;;;;;;9.13;8.38;;;19.60;66.10;;;;;;5033529;28;20484;-77
2021/07/01 02:45:14;;;;;;;9.57;8.75;;;19.50;65.90;;;;;;5032417;28;20453;-76
2021/07/01 02:47:54;;;;;;;9.80;8.80;;;19.50;66.00;;;;;;5046797;28;20515;-77
2021/07/01 02:50:21;;;;;;;10.10;9.10;;;19.50;66.00;;;;;;5032095;28;20510;-76
2021/07/01 02:52:47;;;;;;;9.75;8.85;;;19.50;66.10;;;;;;5015593;28;20083;-77
2021/07/01 02:55:13;;;;;;;9.88;8.90;;;19.50;66.10;;;;;;5032094;28;20037;-76
2021/07/01 02:57:39;;;;;;;9.63;8.70;;;19.40;66.00;;;;;;5032090;28;20030;-76
2021/07/01 03:00:13;;;;;;;10.20;8.57;;;19.40;66.10;;;;;;5031948;28;20065;-76
2021/07/01 03:02:43;;;;;;;9.38;8.48;;;19.40;66.10;;;;;;5032025;28;20029;-76
2021/07/01 03:05:29;;;;;;;9.82;8.93;;;19.40;66.10;;;;;;5028495;28;20045;-76
2021/07/01 03:07:56;;;;;;;9.48;8.68;;;19.40;66.10;;;;;;5031707;28;20046;-76
2021/07/01 03:10:23;;;;;;;10.55;9.40;;;19.40;66.20;;;;;;5032740;28;20079;-75
2021/07/01 03:12:59;;;;;;;9.27;8.43;;;19.40;66.20;;;;;;5033209;28;20187;-75
2021/07/01 03:15:29;;;;;;;10.35;9.38;;;19.40;66.20;;;;;;5031522;28;20512;-75
2021/07/01 03:17:55;;;;;;;11.07;9.98;;;19.40;66.30;;;;;;5032384;28;20538;-76
2021/07/01 03:20:35;;;;;;;10.88;9.82;;;19.40;66.40;;;;;;5031672;28;20477;-75
2021/07/01 03:23:20;;;;;;;10.45;9.50;;;19.40;66.40;;;;;;5032428;28;20083;-75
2021/07/01 03:25:46;;;;;;;10.88;9.50;;;19.40;66.40;;;;;;5032947;28;20037;-75
2021/07/01 03:28:11;;;;;;;10.07;9.07;;;19.40;66.40;;;;;;5031009;28;20095;-75
2021/07/01 03:30:38;;;;;;;11.02;9.45;;;19.40;66.40;;;;;;5014688;28;20036;-73
2021/07/01 03:33:04;;;;;;;10.60;9.70;;;19.40;66.50;;;;;;5014599;28;20569;-73
2021/07/01 03:35:30;;;;;;;10.23;9.18;;;19.40;66.50;;;;;;5032498;28;20065;-73
2021/07/01 03:38:15;;;;;;;10.55;9.55;;;19.40;66.50;;;;;;5031593;28;20033;-75
2021/07/01 03:41:04;;;;;;;10.20;9.25;;;19.40;66.50;;;;;;5017465;28;20484;-73
2021/07/01 03:43:34;;;;;;;10.55;9.48;;;19.30;66.30;;;;;;5030877;28;20450;-74
2021/07/01 03:46:01;;;;;;;15.77;9.93;;;19.30;66.50;;;;;;5047829;28;20036;-73
2021/07/01 03:48:27;;;;;;;10.93;9.93;;;19.30;66.40;;;;;;5032272;28;20033;-76
2021/07/01 03:51:19;;;;;;;11.30;10.25;;;19.30;67.00;;;;;;5043906;28;20116;-75
2021/07/01 03:53:56;;;;;;;11.13;10.02;;;19.30;66.40;;;;;;5047427;28;20071;-76
2021/07/01 03:56:22;;;;;;;10.48;9.48;;;19.30;66.50;;;;;;5031014;28;20039;-75
2021/07/01 03:58:48;;;;;;;11.25;9.65;;;19.30;66.50;;;;;;5030821;28;20029;-75
2021/07/01 04:01:41;;;;;;;11.27;10.13;;;19.30;66.60;;;;;;5031636;28;20075;-75
2021/07/01 04:04:08;;;;;;;11.13;10.02;;;19.30;66.60;;;;;;5032064;28;20048;-75
2021/07/01 04:06:35;;;;;;;10.93;9.82;;;19.20;66.40;;;;;;5031904;28;20062;-75
2021/07/01 04:09:03;;;;;;;10.13;9.23;;;19.20;66.40;;;;;;5031617;28;20025;-75
2021/07/01 04:11:29;;;;;;;11.23;10.15;;;19.20;66.50;;;;;;5047430;28;20030;-75
2021/07/01 04:13:56;;;;;;;11.50;10.38;;;19.20;66.50;;;;;;5030499;28;20052;-75
2021/07/01 04:16:41;;;;;;;11.82;10.63;;;19.20;66.60;;;;;;5031519;28;20033;-75
2021/07/01 04:19:25;;;;;;;11.50;10.27;;;19.20;66.60;;;;;;5031747;28;20064;-75
2021/07/01 04:22:10;;;;;;;11.15;10.07;;;19.20;66.60;;;;;;5031270;28;20551;-75
2021/07/01 04:25:14;;;;;;;11.80;10.65;;;19.20;66.60;;;;;;4989439;28;20125;-77
2021/07/01 04:27:43;;;;;;;12.57;11.38;;;19.20;66.60;;;;;;4989296;28;20040;-76
2021/07/01 04:30:10;;;;;;;12.73;11.48;;;19.20;66.60;;;;;;5016100;28;20041;-75
2021/07/01 04:33:02;;;;;;;12.73;11.18;;;19.20;66.60;;;;;;5031208;28;20092;-75
2021/07/01 04:35:29;;;;;;;13.93;11.00;;;19.20;66.70;;;;;;5031287;28;20107;-74
2021/07/01 04:37:55;;;;;;;12.88;11.57;;;19.20;66.70;;;;;;5046768;28;20064;-75
2021/07/01 04:40:21;;;;;;;14.25;12.25;;;19.20;66.70;;;;;;5030184;28;20041;-77
2021/07/01 04:42:47;;;;;;;12.13;10.93;;;19.20;66.70;;;;;;5046632;28;20080;-79
2021/07/01 04:45:13;;;;;;;14.55;13.05;;;19.20;66.80;;;;;;5046002;28;20381;-75
2021/07/01 04:47:40;;;;;;;14.68;13.23;;;19.20;66.80;;;;;;5032073;28;20037;-75
2021/07/01 04:50:07;;;;;;;13.10;11.80;;;19.30;66.90;;;;;;5047537;28;20025;-76
2021/07/01 04:52:36;;;;;;;14.13;12.73;;;19.20;66.80;;;;;;5048195;28;20644;-78
2021/07/01 04:55:20;;;;;;;15.05;13.48;;;19.20;66.80;;;;;;5047734;28;20113;-75
2021/07/01 04:58:05;;;;;;;16.35;14.75;;;19.30;66.90;;;;;;5047546;28;20044;-78
2021/07/01 05:00:35;;;;;;;15.27;13.70;;;19.30;66.90;;;;;;5046820;28;20041;-75
2021/07/01 05:03:19;;;;;;;16.83;15.02;;;19.20;66.70;;;;;;5045728;28;20067;-77
2021/07/01 05:05:46;;;;;;;16.63;14.85;;;19.30;66.90;;;;;;5045773;28;20391;-76
2021/07/01 05:08:16;;;;;;;18.60;15.05;;;19.30;66.90;;;;;;5037004;28;20191;-77
2021/07/01 05:10:44;;;;;;;20.23;15.38;;;19.30;66.90;;;;;;5026604;28;20488;-76
2021/07/01 05:13:13;;;;;;;17.63;14.65;;;19.30;66.90;;;;;;5009258;28;20045;-77
2021/07/01 05:15:39;;;;;;;17.60;13.85;;;19.30;66.90;;;;;;5025348;28;20617;-77
2021/07/01 05:18:07;;;;;;;16.70;15.07;;;19.30;66.90;;;;;;5026333;28;20420;-78
2021/07/01 05:20:37;;;;;;;16.13;14.48;;;19.40;67.10;;;;;;5024714;28;20347;-76
2021/07/01 05:23:22;;;;;;;18.15;16.30;;;19.40;67.10;;;;;;5037956;28;20036;-75
2021/07/01 05:26:18;;;;;;;20.35;15.50;;;19.40;67.10;;;;;;4990809;28;20061;-76
2021/07/01 05:29:10;;;;;;;17.63;14.50;;;19.40;67.00;;;;;;5029731;28;20045;-76
2021/07/01 05:31:55;;;;;;;18.13;15.68;;;19.40;66.90;;;;;;5044610;28;20119;-75
2021/07/01 05:34:47;;;;;;;17.85;15.48;;;19.50;67.10;;;;;;5044152;28;20120;-77
2021/07/01 05:37:13;;;;;;;17.25;15.45;;;19.50;67.00;;;;;;5044327;28;20132;-77
2021/07/01 05:39:45;;;;;;;18.10;16.17;;;19.50;67.00;;;;;;5024613;28;20124;-76
2021/07/01 05:42:11;;;;;;;16.85;14.93;;;19.60;67.10;;;;;;5028402;28;20120;-75
2021/07/01 05:44:38;;;;;;;18.23;16.30;;;19.60;67.40;;;;;;5046190;28;20520;-75
2021/07/01 05:47:04;;;;;;;18.63;16.60;;;19.70;68.10;;;;;;5044560;28;20522;-75
2021/07/01 05:49:30;;;;;;;19.02;16.80;;;19.70;68.70;;;;;;5043746;28;20032;-75
2021/07/01 05:52:01;;;;;;;20.88;17.83;;;19.80;69.40;;;;;;5044337;28;20354;-75
2021/07/01 05:55:09;;;;;;;20.88;18.58;;;19.90;69.90;;;;;;5045583;28;20047;-75
2021/07/01 05:57:16;;;;;;;19.85;17.75;;;20.00;70.30;;;;;;5039688;28;20087;-74
2021/07/01 05:59:42;;;;;;;20.33;18.20;;;20.00;70.40;;;;;;5045961;28;20060;-76
2021/07/01 06:02:08;;;;;;;19.55;17.50;;;20.10;70.90;;;;;;5047856;28;20514;-75
2021/07/01 06:04:34;;;;;;;19.80;17.75;;;20.10;71.20;;;;;;5049512;28;20035;-75
2021/07/01 06:07:27;;;;;;;20.02;17.95;;;20.20;71.50;;;;;;5047896;28;20051;-74
2021/07/01 06:09:56;;;;;;;21.05;18.67;;;20.30;71.80;;;;;;5038530;28;20350;-75
2021/07/01 06:12:29;;;;;;;23.58;19.40;;;20.40;72.10;;;;;;5044279;28;20323;-75
2021/07/01 06:14:57;;;;;;;21.08;19.17;;;20.50;72.50;;;;;;5029185;28;20508;-75
2021/07/01 06:17:30;;;;;;;19.38;17.65;;;20.60;72.50;;;;;;5029166;28;20025;-75
2021/07/01 06:19:57;;;;;;;20.02;17.92;;;20.60;72.60;;;;;;5028069;28;20047;-76
2021/07/01 06:22:23;;;;;;;19.65;17.58;;;20.70;72.60;;;;;;5033116;28;20389;-76
2021/07/01 06:24:54;;;;;;;21.30;19.27;;;20.80;72.70;;;;;;5022515;28;20129;-76
2021/07/01 06:27:28;;;;;;;20.33;17.98;;;20.80;72.60;;;;;;5048670;28;20040;-77
2021/07/01 06:29:55;;;;;;;20.92;17.95;;;20.90;72.60;;;;;;5062849;28;20033;-79
2021/07/01 06:32:21;;;;;;;21.83;19.15;;;21.00;72.60;;;;;;5043953;28;20038;-75
2021/07/01 06:34:47;;;;;;;20.52;18.42;;;21.00;72.50;;;;;;5033122;28;20037;-76
2021/07/01 06:37:13;;;;;;;20.38;18.30;;;21.10;72.60;;;;;;5047005;28;20033;-77
2021/07/01 06:39:59;;;;;;;20.25;18.30;;;21.10;72.50;;;;;;5047734;28;20107;-77
2021/07/01 06:42:57;;;;;;;21.27;18.98;;;21.20;72.50;;;;;;5026645;28;20111;-76
2021/07/01 06:45:43;;;;;;;20.70;18.70;;;21.20;72.30;;;;;;5048435;28;20036;-77
2021/07/01 06:48:28;;;;;;;22.02;19.70;;;21.30;72.30;;;;;;5047672;28;20033;-76
2021/07/01 06:51:14;;;;;;;21.95;19.85;;;21.30;72.10;;;;;;5048868;28;20108;-76
2021/07/01 06:54:00;;;;;;;22.67;20.33;;;21.40;72.20;;;;;;5031157;28;20083;-77
2021/07/01 06:56:52;;;;;;;24.77;22.17;;;21.40;72.00;;;;;;5040920;28;20072;-76
2021/07/01 06:59:20;;;;;;;23.65;21.00;;;21.50;72.10;;;;;;5028219;28;20024;-76
2021/07/01 07:01:48;;;;;;;24.45;22.00;;;21.50;72.00;;;;;;5026618;28;20302;-77
2021/07/01 07:04:18;;;;;;;21.98;19.88;;;21.60;72.10;;;;;;5026950;28;20029;-77
2021/07/01 07:06:46;;;;;;;24.75;22.20;;;21.60;71.90;;;;;;5026965;28;20207;-77
2021/07/01 07:09:13;;;;;;;24.38;21.98;;;21.60;71.80;;;;;;5027672;28;20040;-77
2021/07/01 07:11:40;;;;;;;25.48;22.75;;;21.70;71.80;;;;;;5026193;28;20260;-77
2021/07/01 07:14:06;;;;;;;23.67;21.42;;;21.70;71.70;;;;;;5027703;28;20219;-76
2021/07/01 07:16:37;;;;;;;25.75;23.30;;;21.80;71.80;;;;;;5027953;28;20508;-74
2021/07/01 07:19:06;;;;;;;26.15;23.50;;;21.80;71.70;;;;;;5043153;28;20546;-77
2021/07/01 07:21:37;;;;;;;25.65;23.17;;;22.00;71.90;;;;;;5026901;28;20034;-77
2021/07/01 07:24:04;;;;;;;26.55;24.05;;;22.00;71.70;;;;;;5027649;28;20033;-77
2021/07/01 07:26:30;;;;;;;27.77;24.83;;;22.10;71.60;;;;;;5027921;28;20091;-77
2021/07/01 07:28:57;;;;;;;26.13;23.63;;;22.20;71.50;;;;;;5026212;28;20045;-77
2021/07/01 07:31:31;;;;;;;26.10;23.60;;;22.30;71.40;;;;;;5028227;28;20499;-76
2021/07/01 07:34:07;;;;;;;24.85;22.50;;;22.50;71.50;;;;;;5041042;28;20053;-77
2021/07/01 07:36:34;;;;;;;25.00;22.45;;;22.60;71.50;;;;;;5047618;28;20071;-76
2021/07/01 07:39:01;;;;;;;25.27;22.73;;;22.60;71.20;;;;;;5047077;28;20079;-75
2021/07/01 07:41:27;;;;;;;25.02;22.60;;;22.80;71.30;;;;;;5046059;28;20032;-76
2021/07/01 07:43:55;;;;;;;24.65;22.40;;;22.90;71.30;;;;;;5030767;28;20033;-76
2021/07/01 07:46:24;;;;;;;23.70;21.40;;;23.00;71.20;;;;;;5026900;28;20284;-76
2021/07/01 07:48:50;;;;;;;24.17;21.95;;;23.10;71.10;;;;;;5025852;28;20026;-74
2021/07/01 07:51:25;;;;;;;24.40;22.10;;;23.20;71.00;;;;;;5027358;28;20400;-76
2021/07/01 07:54:00;;;;;;;24.42;22.08;;;23.30;70.90;;;;;;5041315;28;20547;-76
2021/07/01 07:56:36;;;;;;;23.70;21.20;;;23.50;71.10;;;;;;5047159;28;20032;-76
2021/07/01 07:59:07;;;;;;;25.10;22.70;;;23.60;71.00;;;;;;5047290;28;20048;-76
2021/07/01 08:01:37;;;;;;;23.75;21.38;;;23.70;70.80;;;;;;5047282;28;20024;-76
2021/07/01 08:04:05;;;;;;;22.88;20.77;;;23.80;70.70;;;;;;5047091;28;20032;-76
2021/07/01 08:06:33;;;;;;;23.33;21.17;;;23.90;70.70;;;;;;5047118;28;20477;-76
2021/07/01 08:09:01;;;;;;;23.30;21.13;;;23.90;70.40;;;;;;5045342;28;20070;-75
2021/07/01 08:11:29;;;;;;;22.90;20.73;;;24.10;70.60;;;;;;5045492;28;20430;-75
2021/07/01 08:13:59;;;;;;;23.95;21.45;;;24.10;70.30;;;;;;5029232;28;20503;-75
2021/07/01 08:16:26;;;;;;;24.23;21.92;;;24.20;70.30;;;;;;5045503;28;20120;-74
2021/07/01 08:18:52;;;;;;;23.85;21.42;;;24.30;70.20;;;;;;5046258;28;20056;-74
2021/07/01 08:21:19;;;;;;;24.42;21.88;;;24.40;70.20;;;;;;5046265;28;20027;-74
2021/07/01 08:23:46;;;;;;;23.10;21.00;;;24.40;69.90;;;;;;5045637;28;20055;-74
2021/07/01 08:26:13;;;;;;;25.23;22.58;;;24.50;69.90;;;;;;5046060;28;20028;-74
2021/07/01 08:28:40;;;;;;;24.92;22.40;;;24.50;69.80;;;;;;5045094;28;20044;-74
2021/07/01 08:31:07;;;;;;;23.52;21.30;;;24.60;69.80;;;;;;5045075;28;20032;-74
2021/07/01 08:33:36;;;;;;;23.15;20.98;;;24.70;69.70;;;;;;5032472;28;20057;-74
2021/07/01 08:36:05;;;;;;;24.77;22.30;;;24.80;69.60;;;;;;5026655;28;20397;-73
2021/07/01 08:38:37;;;;;;;23.50;21.15;;;24.80;69.50;;;;;;5026549;28;20069;-74
2021/07/01 08:41:19;;;;;;;24.35;21.92;;;24.90;69.40;;;;;;5031645;28;20543;-73
2021/07/01 08:43:53;;;;;;;23.05;20.80;;;24.80;69.10;;;;;;5035488;28;20553;-74
2021/07/01 08:46:41;;;;;;;24.35;21.67;;;24.80;69.00;;;;;;5046339;28;20423;-75
2021/07/01 08:49:09;;;;;;;24.55;22.27;;;24.80;69.00;;;;;;5045815;28;20125;-73
2021/07/01 08:51:37;;;;;;;22.63;20.42;;;24.90;69.10;;;;;;5045272;28;20059;-73
2021/07/01 08:54:13;;;;;;;25.05;21.90;;;24.80;68.80;;;;;;5046192;28;20033;-75
2021/07/01 08:56:41;;;;;;;24.05;21.60;;;24.80;68.80;;;;;;5044510;28;20227;-76
2021/07/01 08:59:09;;;;;;;23.15;20.95;;;24.80;68.70;;;;;;5044492;28;20281;-74
2021/07/01 09:01:41;;;;;;;24.00;21.65;;;24.70;68.60;;;;;;5046139;28;20029;-76
2021/07/01 09:04:11;;;;;;;25.00;22.50;;;24.80;68.70;;;;;;5045934;28;20025;-76
2021/07/01 09:06:37;;;;;;;22.52;20.33;;;24.80;68.60;;;;;;5027845;28;20033;-77
2021/07/01 09:09:10;;;;;;;24.05;21.17;;;24.80;68.60;;;;;;5045968;28;20041;-77
2021/07/01 09:11:41;;;;;;;23.92;21.60;;;24.80;68.60;;;;;;5046120;28;20043;-77
2021/07/01 09:14:10;;;;;;;22.88;20.58;;;24.70;68.40;;;;;;5044690;28;20037;-75
2021/07/01 09:16:38;;;;;;;24.35;21.98;;;24.70;68.30;;;;;;5046135;28;20025;-76
2021/07/01 09:19:05;;;;;;;22.38;20.40;;;24.70;68.30;;;;;;5044264;28;20488;-77
2021/07/01 09:21:33;;;;;;;23.02;21.02;;;24.70;68.20;;;;;;5043143;28;20032;-74
2021/07/01 09:24:03;;;;;;;22.95;20.85;;;24.70;68.10;;;;;;5043982;28;20036;-73
2021/07/01 09:26:30;;;;;;;23.67;21.17;;;24.70;68.00;;;;;;5045290;28;20116;-74
2021/07/01 09:28:57;;;;;;;24.05;20.35;;;24.70;67.90;;;;;;5045080;28;20037;-74
2021/07/01 09:31:25;;;;;;;23.73;21.30;;;24.70;67.90;;;;;;5045615;28;20411;-74
2021/07/01 09:33:52;;;;;;;22.60;20.55;;;24.80;68.00;;;;;;5030707;28;20057;-75
2021/07/01 09:36:20;;;;;;;24.45;22.05;;;24.80;67.90;;;;;;5027943;28;20035;-76
2021/07/01 09:38:47;;;;;;;26.05;23.65;;;24.90;68.00;;;;;;5030190;28;20124;-75
2021/07/01 09:41:14;;;;;;;24.38;22.10;;;25.00;68.00;;;;;;5050247;28;20048;-75
2021/07/01 09:43:42;;;;;;;25.50;23.23;;;25.10;67.90;;;;;;5049531;28;20086;-77
2021/07/01 09:46:13;;;;;;;23.85;21.73;;;25.20;67.80;;;;;;5048183;28;20116;-76
2021/07/01 09:48:45;;;;;;;26.55;24.05;;;25.30;67.60;;;;;;5049412;28;20095;-75
2021/07/01 09:51:12;;;;;;;25.43;22.83;;;25.40;67.40;;;;;;5049587;28;20029;-76
2021/07/01 09:53:39;;;;;;;25.08;22.67;;;25.50;67.20;;;;;;5048784;28;20039;-75
2021/07/01 09:56:08;;;;;;;25.15;22.83;;;25.60;67.10;;;;;;5049539;28;20033;-75
2021/07/01 09:58:42;;;;;;;25.70;22.95;;;25.70;67.00;;;;;;5049691;28;20086;-74
2021/07/01 10:01:25;;;;;;;24.52;22.08;;;25.70;66.80;;;;;;5049103;28;20116;-75
2021/07/01 10:03:56;;;;;;;24.42;21.92;;;25.80;66.70;;;;;;5049569;28;20056;-75
2021/07/01 10:06:23;;;;;;;25.48;22.83;;;25.90;66.70;;;;;;5048530;28;20091;-74
2021/07/01 10:08:50;;;;;;;24.67;22.33;;;25.90;66.60;;;;;;5048771;28;20028;-74
2021/07/01 10:11:38;;;;;;;24.50;21.98;;;26.00;66.60;;;;;;5048046;28;20029;-75
2021/07/01 10:14:06;;;;;;;22.77;20.83;;;26.30;66.40;;;;;;5048959;28;20128;-75
2021/07/01 10:16:34;;;;;;;24.20;21.90;;;26.70;66.10;;;;;;5046792;28;20033;-75
2021/07/01 10:19:02;;;;;;;23.10;21.00;;;27.10;65.60;;;;;;5047860;28;20040;-75
2021/07/01 10:21:29;;;;;;;22.95;20.85;;;27.60;65.00;;;;;;5048680;28;20048;-76
2021/07/01 10:24:16;;;;;;;24.10;21.90;;;28.10;64.40;;;;;;5032372;28;20033;-74
2021/07/01 10:26:49;;;;;;;22.35;20.35;;;28.50;63.70;;;;;;5048390;28;20037;-75
2021/07/01 10:29:16;;;;;;;22.80;20.67;;;28.90;63.20;;;;;;5048158;28;20500;-75
2021/07/01 10:31:48;;;;;;;21.48;19.40;;;29.20;62.80;;;;;;5048524;28;20496;-75
2021/07/01 10:34:15;;;;;;;20.92;18.92;;;29.40;62.30;;;;;;5048576;28;20472;-74
2021/07/01 10:36:41;;;;;;;20.75;18.67;;;29.50;62.10;;;;;;5048426;28;20592;-74
2021/07/01 10:39:07;;;;;;;21.05;18.90;;;29.60;61.90;;;;;;5045278;28;20061;-72
2021/07/01 10:41:37;;;;;;;21.13;19.13;;;29.70;62.30;;;;;;5044581;28;20512;-72
2021/07/01 10:44:05;;;;;;;20.35;18.35;;;29.70;61.70;;;;;;5031712;28;20036;-74
2021/07/01 10:46:42;;;;;;;20.13;18.33;;;29.70;61.60;;;;;;5048207;28;20024;-74
2021/07/01 10:49:08;;;;;;;19.67;17.92;;;29.70;61.60;;;;;;5048166;28;20548;-74
2021/07/01 10:51:35;;;;;;;19.52;17.73;;;29.60;61.60;;;;;;5048453;28;20031;-73
2021/07/01 10:54:13;;;;;;;20.65;18.65;;;29.60;61.60;;;;;;5046462;28;20037;-73
2021/07/01 10:56:45;;;;;;;20.33;18.52;;;29.50;61.60;;;;;;5038917;28;20037;-73
2021/07/01 10:59:12;;;;;;;19.27;17.58;;;29.50;61.70;;;;;;5048313;28;20031;-73
2021/07/01 11:01:42;;;;;;;20.13;18.15;;;29.40;61.80;;;;;;5047315;28;20036;-74
2021/07/01 11:04:16;;;;;;;19.85;18.02;;;29.40;61.80;;;;;;5044995;28;20111;-76
2021/07/01 11:07:04;;;;;;;19.25;17.58;;;29.40;61.80;;;;;;5048007;28;20155;-75
2021/07/01 11:09:52;;;;;;;20.13;18.08;;;29.40;61.80;;;;;;5047772;28;20059;-76
2021/07/01 11:12:20;;;;;;;19.08;16.90;;;29.70;61.70;;;;;;5046911;28;20121;-74
2021/07/01 11:14:48;;;;;;;19.27;17.38;;;30.00;61.40;;;;;;5048029;28;20217;-77
2021/07/01 11:17:16;;;;;;;18.23;16.60;;;30.20;60.80;;;;;;5048386;28;20453;-75
2021/07/01 11:19:47;;;;;;;17.52;15.82;;;30.50;60.50;;;;;;5047642;28;20033;-76
2021/07/01 11:22:14;;;;;;;16.60;15.18;;;30.80;60.10;;;;;;5047330;28;20503;-76
2021/07/01 11:24:45;;;;;;;18.27;16.58;;;31.10;59.60;;;;;;5046957;28;20112;-75
2021/07/01 11:27:12;;;;;;;16.83;15.20;;;31.30;59.20;;;;;;5038126;28;20072;-74
2021/07/01 11:29:46;;;;;;;15.90;14.40;;;31.50;59.00;;;;;;5047319;28;20044;-75
2021/07/01 11:32:21;;;;;;;17.02;15.63;;;31.70;58.70;;;;;;5047234;28;20088;-75
2021/07/01 11:34:51;;;;;;;17.00;15.40;;;31.90;58.40;;;;;;5045729;28;20423;-76
2021/07/01 11:37:36;;;;;;;16.00;14.60;;;32.00;58.30;;;;;;5045859;28;20135;-74
2021/07/01 11:40:20;;;;;;;16.45;15.05;;;32.10;58.00;;;;;;5036569;28;20053;-75
2021/07/01 11:42:49;;;;;;;16.33;14.65;;;32.20;57.80;;;;;;5042118;28;20301;-75
2021/07/01 11:45:15;;;;;;;16.80;15.15;;;32.30;57.80;;;;;;5027435;28;20225;-74
2021/07/01 11:47:43;;;;;;;14.85;13.55;;;32.50;57.70;;;;;;5026308;28;20178;-75
2021/07/01 11:50:09;;;;;;;14.77;13.38;;;32.60;57.40;;;;;;5027377;28;20302;-75
2021/07/01 11:52:43;;;;;;;15.27;13.98;;;32.80;57.10;;;;;;5027012;28;20448;-75
2021/07/01 11:55:12;;;;;;;15.10;13.70;;;32.80;56.90;;;;;;5026233;28;20314;-74
2021/07/01 11:57:39;;;;;;;14.68;13.27;;;32.90;56.80;;;;;;5027187;28;20064;-75
2021/07/01 12:00:06;;;;;;;15.20;13.85;;;32.90;56.70;;;;;;5027196;28;20048;-75
2021/07/01 12:02:38;;;;;;;14.90;13.50;;;32.80;56.60;;;;;;5017646;28;20033;-75
2021/07/01 12:05:06;;;;;;;13.98;12.77;;;32.80;56.70;;;;;;5025952;28;20029;-75
2021/07/01 12:07:35;;;;;;;14.93;13.63;;;32.80;56.60;;;;;;5008695;28;20071;-75
2021/07/01 12:10:01;;;;;;;14.45;12.98;;;32.90;56.60;;;;;;5025898;28;20061;-74
2021/07/01 12:12:27;;;;;;;13.45;12.35;;;33.10;56.60;;;;;;5026453;28;20037;-74
2021/07/01 12:15:08;;;;;;;13.57;12.38;;;33.20;56.30;;;;;;5026419;28;20026;-74
2021/07/01 12:18:04;;;;;;;13.55;12.45;;;33.20;56.00;;;;;;5026756;28;20034;-74
2021/07/01 12:20:47;;;;;;;14.20;12.93;;;33.30;56.10;;;;;;5026549;28;20029;-75
2021/07/01 12:23:13;;;;;;;13.10;11.95;;;33.30;56.00;;;;;;5030543;28;20025;-74
2021/07/01 12:25:42;;;;;;;12.20;11.10;;;33.40;55.90;;;;;;5026518;28;20079;-75
2021/07/01 12:28:10;;;;;;;19.33;17.42;;;33.50;55.80;;;;;;5046701;28;20072;-74
2021/07/01 12:30:57;;;;;;;15.85;14.35;;;33.60;55.10;;;;;;5046639;28;20485;-75
2021/07/01 12:33:46;;;;;;;15.70;14.13;;;33.70;55.20;;;;;;5044024;28;20060;-74
2021/07/01 12:36:28;;;;;;;14.38;13.07;;;33.80;55.10;;;;;;5056716;28;20136;-76
2021/07/01 12:39:04;;;;;;;15.00;13.67;;;33.90;54.80;;;;;;5030090;28;20424;-73
2021/07/01 12:41:35;;;;;;;13.73;12.57;;;34.00;54.80;;;;;;5009112;28;20064;-74
2021/07/01 12:44:03;;;;;;;13.95;12.77;;;34.20;54.70;;;;;;5041354;28;20493;-74
2021/07/01 12:46:41;;;;;;;13.95;12.60;;;34.40;54.40;;;;;;5045623;28;20766;-75
2021/07/01 12:49:37;;;;;;;13.90;12.60;;;34.70;54.20;;;;;;5046368;28;20420;-75
2021/07/01 12:52:12;;;;;;;14.15;12.95;;;34.80;53.90;;;;;;5035419;28;20025;-76